Whitestown, New York
Current Conditions -  °F | °C
As of 9:53 PM on Friday 28 Nov 2014 (Local Time) from KRME Reporting Station
Light Snow Light Snow  
Wind Chill: 22°   Ceiling: 3400
Heat Index: 22°   Visibility: 6mi
Dew Point: 18°   Wind: 0mph
Humidity: 85%   Direction: NA
Pressure: 30.24"   Gusts: NA
Location:  43.1203°N, 75.3249°W
Report Text: KRME 290253Z AUTO 00000KT 6SM -SN BR BKN034 OVC044 M06/M08 A3024 RMK AO2 SLP245 P0000 60000 T10561078 53002 TSNO
Loading
Personal Weather Stations






























Interactive Weather Map New forecast layout! Learn more

10-Day Weather Forecast

Advertisements
Track Severe Weather on mobile